aviador You're here:

CYDN Decoded Metar

DAUPHIN in MB, CANADA
Report Time2017-11-23 14:00:00
UTC Time2017-11-23 14:55:47
Flight Rules mvfr MVFR
Wind120° at 11 kt
W.Decomp.*RWY 14: 9.8 kt HW 5 kt LCW
RWY 08: 9.2 kt HW 6.0 kt RCW
RWY 20: 0.6 kt HW 11 kt LCW
W.Rank120° ranks 9
Current wind is above 120° avg. (8.3)
Visibility9999 m
Phenomena:N/A
Clouds:Overcast 016 Hf
Expected CloudBase > 1,200 ft AGL from Temp-Dew spread
Ceiling1,600 ft
Temp-7°C (ISA -20)
Dew Point-10°C (79% RH)
AAT-14.0°C
QNH1008 hPa
Density Alt-1,263 ft
Elevation1,001 ft
Report Wrong Elevation
Raw Report
CYDN 231400Z AUTO 12011KT 9SM OVC016 M07/M10 A2977 RMK PRESFR
SLP105=

Extra information for CYDN:More info

Metar Taf Metar & Taf Last 4 Metars F.Rules Stats Wind Profile Meteogram Temp Stats Airport Information Weather charts Add Link Nearby VenuesMetar ALERT Operation Metar Decoded Social comments